Time;durP1;ratioP1;P1;durP2;ratioP2;P2;SDS_P1;SDS_P2;PMS_P1;PMS_P2;Temp;Humidity;BMP_temperature;BMP_pressure;BME280_temperature;BME280_humidity;BME280_pressure;Samples;Min_cycle;Max_cycle;Signal;HPM_P1;HPM_P2
2022/09/26 00:01:50;;;;;;;10.43;8.43;;;11.30;99.90;;;11.74;85.70;97354.09;5128151;27;20486;-74
2022/09/26 00:04:22;;;;;;;11.40;8.70;;;11.40;99.90;;;11.69;85.72;97354.00;5110034;27;20548;-73
2022/09/26 00:06:49;;;;;;;8.90;8.10;;;11.40;99.90;;;11.74;86.14;97347.84;5126505;27;20469;-72
2022/09/26 00:09:18;;;;;;;10.67;9.67;;;11.40;99.90;;;11.83;85.97;97343.72;5124236;27;20482;-74
2022/09/26 00:11:45;;;;;;;9.50;7.83;;;11.40;99.90;;;11.66;85.96;97337.41;5098836;28;20445;-75
2022/09/26 00:14:16;;;;;;;8.80;7.90;;;11.40;99.90;;;11.77;85.79;97341.97;5089419;28;20490;-76
2022/09/26 00:16:44;;;;;;;9.43;8.53;;;11.40;99.90;;;11.64;86.01;97342.25;5113182;27;20510;-75
2022/09/26 00:19:11;;;;;;;9.07;8.20;;;11.40;99.90;;;11.65;86.52;97333.06;5108086;28;20485;-73
2022/09/26 00:21:40;;;;;;;10.17;9.03;;;11.40;99.90;;;11.66;85.99;97322.00;5096673;27;20481;-76
2022/09/26 00:24:08;;;;;;;10.80;9.70;;;11.30;99.90;;;11.56;86.62;97332.63;5111679;27;20937;-73
2022/09/26 00:26:37;;;;;;;15.03;9.70;;;11.30;99.90;;;11.57;87.00;97334.25;5128054;27;20525;-75
2022/09/26 00:29:08;;;;;;;9.83;8.83;;;11.30;99.90;;;11.33;87.35;97286.44;5112283;27;20561;-72
2022/09/26 00:31:39;;;;;;;10.53;9.50;;;11.30;99.90;;;11.51;87.69;97324.38;5107218;28;20511;-73
2022/09/26 00:34:06;;;;;;;10.00;9.10;;;11.30;99.90;;;11.53;88.05;97331.22;5089214;28;20496;-73
2022/09/26 00:36:34;;;;;;;10.60;9.50;;;11.30;99.90;;;11.60;87.82;97318.38;5115563;27;20570;-75
2022/09/26 00:39:03;;;;;;;11.23;10.10;;;11.30;99.90;;;11.50;87.39;97330.84;5112972;27;20455;-75
2022/09/26 00:41:30;;;;;;;12.17;10.83;;;11.30;99.90;;;11.67;87.64;97331.75;5088508;28;20884;-72
2022/09/26 00:43:57;;;;;;;11.57;10.37;;;11.30;99.90;;;11.61;87.69;97330.84;5120300;27;20563;-73
2022/09/26 00:46:31;;;;;;;11.37;10.10;;;11.30;99.90;;;11.66;86.79;97326.59;5111588;28;21072;-72
2022/09/26 00:49:07;;;;;;;13.03;10.60;;;11.20;99.90;;;11.58;87.50;97336.72;5108160;28;20541;-72
2022/09/26 00:51:39;;;;;;;10.93;9.63;;;11.20;99.90;;;11.43;88.08;97330.97;5109900;28;20580;-72
2022/09/26 00:54:12;;;;;;;12.27;11.07;;;11.20;99.90;;;11.31;88.85;97342.66;5106875;28;21059;-75
2022/09/26 00:56:41;;;;;;;12.40;11.00;;;11.10;99.90;;;11.30;88.49;97341.00;5088663;28;20443;-73
2022/09/26 00:59:15;;;;;;;12.90;11.07;;;11.00;99.90;;;11.29;88.92;97333.13;5125145;28;20557;-73
2022/09/26 01:01:42;;;;;;;12.60;11.10;;;10.90;99.90;;;11.16;89.40;97329.59;5127323;28;20469;-75
2022/09/26 01:04:11;;;;;;;13.37;11.70;;;10.80;99.90;;;11.15;90.30;97324.47;5108170;28;20862;-75
2022/09/26 01:06:38;;;;;;;13.73;12.33;;;10.80;99.90;;;11.15;90.33;97321.75;5091341;28;20691;-78
2022/09/26 01:09:08;;;;;;;13.80;11.90;;;10.80;99.90;;;11.19;89.91;97322.91;5107789;28;20450;-73
2022/09/26 01:11:36;;;;;;;15.57;12.90;;;10.90;99.90;;;11.17;89.87;97303.41;5106776;28;20934;-73
2022/09/26 01:14:05;;;;;;;14.00;12.10;;;10.80;99.90;;;11.28;90.08;97310.66;5088780;28;21072;-78
2022/09/26 01:16:33;;;;;;;15.37;12.80;;;10.90;99.90;;;11.36;89.76;97319.47;5111428;27;20456;-72
2022/09/26 01:19:02;;;;;;;13.00;11.30;;;10.90;99.90;;;11.45;89.03;97320.78;5127326;28;20462;-73
2022/09/26 01:22:26;;;;;;;16.43;12.47;;;11.00;99.90;;;11.35;88.87;97318.66;5115658;28;21143;-74
2022/09/26 01:25:19;;;;;;;15.13;12.33;;;11.00;99.90;;;11.30;88.89;97324.78;5090897;28;20538;-74
2022/09/26 01:28:13;;;;;;;14.90;12.40;;;11.00;99.90;;;11.32;88.96;97325.38;5112263;28;20457;-72
2022/09/26 01:30:48;;;;;;;13.43;10.67;;;11.00;99.90;;;11.27;88.84;97325.25;5116358;28;20489;-73
2022/09/26 01:33:48;;;;;;;13.40;12.00;;;11.00;99.90;;;11.33;88.89;97324.31;5104150;28;20498;-73
2022/09/26 01:36:38;;;;;;;13.13;11.10;;;11.10;99.90;;;11.30;89.07;97319.38;5094935;28;20487;-77
2022/09/26 01:39:26;;;;;;;13.60;12.13;;;11.00;99.90;;;11.28;88.84;97324.19;5117505;27;20449;-73
2022/09/26 01:42:04;;;;;;;15.40;11.93;;;11.00;99.90;;;11.20;88.78;97319.97;5106537;28;20882;-72
2022/09/26 01:44:36;;;;;;;13.40;12.00;;;11.00;99.90;;;11.20;89.00;97332.66;5118057;27;20516;-73
2022/09/26 01:47:14;;;;;;;16.20;12.33;;;11.00;99.90;;;11.40;88.02;97332.31;5130615;27;20488;-73
2022/09/26 01:49:50;;;;;;;13.00;11.70;;;11.10;99.90;;;11.07;88.46;97303.16;5124436;27;20462;-72
2022/09/26 01:52:26;;;;;;;14.63;12.10;;;11.10;99.90;;;11.24;88.12;97330.31;5109778;28;20446;-74
2022/09/26 01:54:58;;;;;;;14.67;12.43;;;11.10;99.90;;;11.29;88.07;97320.41;5129795;27;20502;-73
2022/09/26 01:57:32;;;;;;;15.87;11.77;;;11.10;99.90;;;11.45;87.61;97331.59;5128628;27;20464;-72
2022/09/26 02:00:06;;;;;;;14.33;11.53;;;11.10;99.90;;;11.48;87.05;97331.91;5111915;27;20471;-72
2022/09/26 02:02:41;;;;;;;15.17;12.70;;;11.10;99.90;;;11.26;87.42;97329.00;5103630;27;20544;-74
2022/09/26 02:05:16;;;;;;;13.70;11.20;;;11.10;99.90;;;11.40;87.20;97328.75;5129903;27;20452;-77
2022/09/26 02:07:51;;;;;;;13.33;11.83;;;11.10;99.90;;;11.36;87.86;97327.59;5124954;27;20942;-73
2022/09/26 02:10:25;;;;;;;13.30;11.90;;;11.10;99.90;;;11.34;87.69;97320.53;5112013;27;20585;-79
2022/09/26 02:12:59;;;;;;;15.03;12.33;;;11.10;99.90;;;11.46;87.75;97327.81;5113284;27;20516;-72
2022/09/26 02:15:29;;;;;;;14.97;13.37;;;11.10;99.90;;;11.43;87.45;97325.56;5109341;27;20460;-72
2022/09/26 02:18:06;;;;;;;15.97;12.57;;;11.10;99.90;;;11.45;87.40;97320.78;5115906;27;20482;-72
2022/09/26 02:20:37;;;;;;;13.77;12.37;;;11.10;99.90;;;11.55;86.47;97318.25;5110413;27;20503;-73
2022/09/26 02:23:05;;;;;;;13.37;12.03;;;11.20;99.90;;;11.44;87.20;97309.13;5100675;28;20929;-72
2022/09/26 02:25:33;;;;;;;12.90;11.60;;;11.20;99.90;;;11.42;86.85;97305.00;5090283;28;20496;-71
2022/09/26 02:28:01;;;;;;;13.30;11.90;;;11.10;99.90;;;11.29;87.26;97311.50;5094950;28;20490;-71
2022/09/26 02:30:29;;;;;;;12.33;11.13;;;11.10;99.90;;;11.32;87.32;97308.31;5098405;28;20936;-71
2022/09/26 02:32:58;;;;;;;13.10;11.67;;;11.00;99.90;;;11.16;87.07;97288.25;5110342;28;20860;-72
2022/09/26 02:38:11;;;;;;;13.20;11.80;;;11.00;99.90;;;11.32;86.91;97295.63;5122905;27;20482;-73
2022/09/26 02:40:47;;;;;;;13.20;11.80;;;11.00;99.90;;;11.34;86.51;97298.91;5109613;28;20461;-72
2022/09/26 02:43:40;;;;;;;16.00;12.20;;;11.10;99.90;;;11.36;86.93;97305.97;5093277;28;20557;-73
2022/09/26 02:46:31;;;;;;;13.90;11.10;;;11.10;99.90;;;11.34;86.37;97298.91;5095135;28;20527;-72
2022/09/26 02:49:20;;;;;;;14.87;12.27;;;11.10;99.90;;;11.39;86.61;97297.38;5110642;28;20462;-74
2022/09/26 02:52:07;;;;;;;17.13;12.00;;;11.10;99.90;;;11.45;86.67;97293.72;5100737;27;20453;-72
2022/09/26 02:54:48;;;;;;;13.30;11.53;;;11.10;99.90;;;11.49;86.27;97292.19;5093333;28;20480;-76
2022/09/26 02:57:29;;;;;;;13.47;12.07;;;11.10;99.90;;;11.54;85.97;97292.28;5113742;27;20540;-71
2022/09/26 03:00:02;;;;;;;12.40;11.10;;;11.10;99.90;;;11.56;85.62;97292.03;5133363;27;21213;-71
2022/09/26 03:02:36;;;;;;;15.27;11.00;;;11.10;99.90;;;11.53;85.80;97290.63;5114336;28;20543;-71
2022/09/26 03:05:11;;;;;;;10.63;9.63;;;11.10;99.90;;;11.55;85.26;97291.22;5097629;28;20865;-71
2022/09/26 03:07:44;;;;;;;14.07;11.03;;;11.10;99.90;;;11.62;84.65;97272.13;5113346;27;20550;-74
2022/09/26 03:10:14;;;;;;;11.43;10.33;;;11.20;99.90;;;11.73;84.40;97278.56;5121705;27;20554;-73
2022/09/26 03:12:44;;;;;;;14.20;11.23;;;11.20;99.90;;;11.67;84.30;97279.53;5116835;27;20458;-77
2022/09/26 03:15:13;;;;;;;15.33;11.43;;;11.20;99.90;;;11.49;85.18;97278.66;5134769;27;20469;-73
2022/09/26 03:17:47;;;;;;;13.43;10.70;;;11.20;99.90;;;11.51;84.88;97283.81;5131075;27;20564;-74
2022/09/26 03:20:18;;;;;;;13.63;12.23;;;11.20;99.90;;;11.60;84.98;97275.09;5114479;27;20447;-78
2022/09/26 03:22:46;;;;;;;13.47;10.83;;;11.20;99.90;;;11.52;84.87;97278.16;5131689;27;20466;-79
2022/09/26 03:25:17;;;;;;;11.87;10.77;;;11.20;99.90;;;11.50;84.82;97272.19;5118878;27;20526;-71
2022/09/26 03:27:46;;;;;;;13.00;10.47;;;11.10;99.80;;;11.39;84.75;97267.63;5113422;27;20552;-74
2022/09/26 03:30:16;;;;;;;12.67;11.37;;;11.10;99.80;;;11.18;85.36;97275.31;5110608;27;20502;-71
2022/09/26 03:32:43;;;;;;;12.43;11.00;;;11.00;99.50;;;11.21;85.77;97272.13;5111982;27;20875;-71
2022/09/26 03:35:11;;;;;;;12.77;11.47;;;11.00;99.90;;;11.19;85.80;97280.47;5090678;28;20504;-73
2022/09/26 03:37:39;;;;;;;15.20;11.60;;;10.90;99.90;;;11.26;85.63;97252.50;5110965;27;20457;-76
2022/09/26 03:40:10;;;;;;;13.63;11.60;;;11.00;99.90;;;11.22;85.45;97270.22;5124970;27;20510;-74
2022/09/26 03:42:38;;;;;;;16.00;11.73;;;10.90;99.90;;;11.20;85.85;97265.06;5119063;27;20470;-71
2022/09/26 03:45:09;;;;;;;11.93;10.63;;;10.90;99.90;;;11.05;86.41;97249.34;5103893;27;20445;-74
2022/09/26 03:47:37;;;;;;;12.37;11.07;;;10.90;99.90;;;11.24;86.15;97260.81;5110674;27;20488;-73
2022/09/26 03:50:05;;;;;;;14.00;11.03;;;10.90;99.90;;;11.13;86.36;97256.25;5090726;28;20531;-71
2022/09/26 03:52:32;;;;;;;13.67;11.60;;;10.90;99.90;;;11.29;85.58;97246.59;5116223;27;20492;-77
2022/09/26 03:55:01;;;;;;;13.17;11.77;;;10.90;99.90;;;11.38;85.55;97247.03;5128329;27;20476;-75
2022/09/26 03:57:28;;;;;;;15.23;12.60;;;10.90;99.90;;;11.48;85.72;97252.66;5125529;27;20494;-72
2022/09/26 03:59:56;;;;;;;14.97;11.50;;;10.90;99.90;;;11.36;85.00;97246.47;5102748;27;20554;-71
2022/09/26 04:02:23;;;;;;;14.47;11.93;;;10.90;99.90;;;11.47;85.08;97237.50;5109781;27;20503;-71
2022/09/26 04:04:50;;;;;;;16.47;12.10;;;10.90;99.90;;;11.59;84.51;97251.78;5127963;27;20494;-75
2022/09/26 04:07:17;;;;;;;13.43;12.03;;;10.90;99.90;;;11.58;84.90;97244.72;5112826;27;20951;-76
2022/09/26 04:09:44;;;;;;;13.87;12.00;;;10.90;99.90;;;11.30;86.18;97243.66;5123894;27;20488;-73
2022/09/26 04:12:12;;;;;;;15.73;11.23;;;10.90;99.90;;;11.16;86.53;97236.88;5117060;27;21105;-74
2022/09/26 04:14:42;;;;;;;17.90;10.80;;;10.90;99.90;;;11.12;86.64;97236.53;5129620;27;20491;-72
2022/09/26 04:17:09;;;;;;;13.00;11.30;;;10.90;99.90;;;11.03;86.74;97237.94;5112617;27;20790;-71
2022/09/26 04:19:36;;;;;;;11.83;10.57;;;10.90;99.90;;;11.16;86.62;97231.47;5090730;28;20512;-76
2022/09/26 04:22:06;;;;;;;13.53;10.60;;;10.90;99.90;;;11.01;86.92;97232.78;5115367;27;20459;-72
2022/09/26 04:24:34;;;;;;;12.57;10.40;;;10.80;99.90;;;11.15;86.37;97237.94;5094763;28;20457;-71
2022/09/26 04:27:02;;;;;;;15.10;10.97;;;10.80;99.90;;;11.00;86.59;97223.03;5107064;28;20456;-73
2022/09/26 04:29:30;;;;;;;11.73;10.47;;;10.70;99.90;;;11.05;86.68;97233.13;5108478;27;20509;-72
2022/09/26 04:31:57;;;;;;;13.10;11.03;;;10.70;99.90;;;11.13;86.39;97231.94;5127175;27;20441;-78
2022/09/26 04:34:24;;;;;;;11.83;9.97;;;10.70;99.90;;;11.05;86.32;97228.53;5111414;27;20472;-74
2022/09/26 04:36:52;;;;;;;12.33;10.80;;;10.70;99.90;;;11.13;85.68;97226.50;5107375;27;20451;-72
2022/09/26 04:39:19;;;;;;;10.93;9.83;;;10.70;99.90;;;10.74;86.00;97181.09;5099621;27;20540;-75
2022/09/26 04:41:46;;;;;;;11.83;9.17;;;10.70;99.90;;;10.96;86.55;97229.97;5114957;27;20980;-75
2022/09/26 04:44:14;;;;;;;14.67;10.90;;;10.70;99.90;;;10.98;86.02;97225.13;5106759;28;20956;-74
2022/09/26 04:46:43;;;;;;;11.57;10.43;;;10.70;99.90;;;10.93;86.26;97230.44;5107294;28;20455;-72
2022/09/26 04:49:10;;;;;;;13.97;11.10;;;10.60;99.90;;;10.95;86.41;97230.22;5108500;28;20449;-74
2022/09/26 04:51:37;;;;;;;14.60;10.00;;;10.60;99.90;;;10.96;86.08;97221.84;5088785;27;20476;-73
2022/09/26 04:54:05;;;;;;;12.43;10.23;;;10.50;99.90;;;10.98;85.87;97224.31;5111101;28;20462;-76
2022/09/26 04:56:32;;;;;;;12.03;10.17;;;10.60;99.90;;;10.91;86.54;97219.03;5108799;28;20862;-74
2022/09/26 04:59:00;;;;;;;10.63;9.53;;;10.60;99.90;;;10.80;86.46;97198.25;5113300;28;20463;-76
2022/09/26 05:01:28;;;;;;;13.23;9.70;;;10.50;99.90;;;11.04;85.69;97212.56;5106840;28;20558;-78
2022/09/26 05:03:56;;;;;;;14.83;11.03;;;10.50;99.90;;;10.83;86.42;97214.00;5108683;28;20544;-76
2022/09/26 05:06:23;;;;;;;10.90;9.73;;;10.50;99.90;;;10.81;86.10;97222.34;5087631;28;20800;-74
2022/09/26 05:08:51;;;;;;;13.20;9.80;;;10.50;99.90;;;10.68;85.97;97204.47;5114652;28;20447;-72
2022/09/26 05:11:20;;;;;;;11.87;10.60;;;10.50;99.90;;;10.67;86.34;97213.66;5106979;28;20456;-77
2022/09/26 05:13:50;;;;;;;13.07;9.10;;;10.50;99.90;;;10.69;86.64;97208.84;5093538;28;20954;-72
2022/09/26 05:16:18;;;;;;;16.50;11.77;;;10.40;99.90;;;10.62;86.93;97205.44;5090680;27;20494;-73
2022/09/26 05:18:50;;;;;;;14.97;11.20;;;10.40;99.90;;;10.68;86.83;97207.19;5114845;27;20458;-72
2022/09/26 05:21:19;;;;;;;14.60;9.83;;;10.50;99.90;;;10.81;86.20;97208.00;5121033;27;20853;-72
2022/09/26 05:26:39;;;;;;;14.53;9.40;;;10.40;99.90;;;10.77;86.36;97213.09;5112588;27;21224;-71
2022/09/26 05:29:06;;;;;;;13.03;10.30;;;10.40;99.90;;;10.58;86.20;97220.47;5116028;27;20577;-71
2022/09/26 05:31:35;;;;;;;12.00;9.80;;;10.30;99.90;;;10.57;86.53;97216.94;5109286;27;20464;-72
2022/09/26 05:34:03;;;;;;;14.50;10.90;;;10.40;99.90;;;10.52;86.70;97216.00;5092424;28;20444;-75
2022/09/26 05:36:31;;;;;;;12.20;10.80;;;10.30;99.90;;;10.57;87.71;97218.84;5092537;28;20477;-71
2022/09/26 05:38:59;;;;;;;13.57;10.53;;;10.40;99.90;;;10.55;87.47;97213.66;5122082;27;20462;-76
2022/09/26 05:41:28;;;;;;;15.33;11.60;;;10.30;99.90;;;10.49;86.29;97214.63;5121975;27;20460;-74
2022/09/26 05:43:55;;;;;;;15.07;11.57;;;10.30;99.90;;;10.51;87.37;97208.97;5122241;27;20508;-74
2022/09/26 05:46:24;;;;;;;17.43;11.77;;;10.30;99.90;;;10.65;86.47;97220.38;5123931;27;20475;-71
2022/09/26 05:48:51;;;;;;;15.07;11.67;;;10.30;99.90;;;10.58;86.14;97221.28;5126827;27;20543;-76
2022/09/26 05:51:20;;;;;;;13.80;12.20;;;10.30;99.90;;;10.46;85.85;97210.50;5110015;28;20449;-80
2022/09/26 05:53:50;;;;;;;20.23;11.87;;;10.30;99.90;;;10.51;86.10;97214.34;5122030;27;20499;-75
2022/09/26 05:56:18;;;;;;;17.03;12.17;;;10.30;99.90;;;10.53;86.34;97207.69;5129087;27;20584;-72
2022/09/26 05:58:46;;;;;;;14.97;11.93;;;10.30;99.90;;;10.74;84.70;97208.97;5118645;27;20501;-75
2022/09/26 06:01:15;;;;;;;13.50;12.10;;;10.30;99.90;;;10.80;84.58;97211.75;5110951;28;20532;-73
2022/09/26 06:03:44;;;;;;;14.73;12.83;;;10.30;99.90;;;10.68;84.57;97199.09;5119169;27;20460;-73
2022/09/26 06:06:14;;;;;;;13.30;11.80;;;10.40;99.50;;;10.59;84.10;97203.22;5111363;27;20447;-71
2022/09/26 06:08:42;;;;;;;14.50;13.00;;;10.30;98.60;;;10.79;84.50;97215.53;5129571;27;20474;-73
2022/09/26 06:11:13;;;;;;;19.03;13.60;;;10.40;98.90;;;10.74;83.38;97208.97;5098198;27;20460;-72
2022/09/26 06:13:42;;;;;;;18.13;13.93;;;10.40;98.60;;;10.86;83.89;97205.44;5103670;27;20824;-77
2022/09/26 06:16:14;;;;;;;15.30;13.70;;;10.50;97.70;;;10.66;83.18;97160.69;5090239;27;20874;-76
2022/09/26 06:18:41;;;;;;;16.90;13.97;;;10.60;97.00;;;10.95;82.73;97209.41;5131857;27;20454;-71
2022/09/26 06:21:12;;;;;;;17.80;14.83;;;10.70;95.80;;;11.07;82.07;97211.25;5130707;27;20444;-75
2022/09/26 06:23:40;;;;;;;15.63;14.03;;;10.70;95.20;;;11.10;81.93;97205.38;5130487;27;20486;-72
2022/09/26 06:26:13;;;;;;;17.77;12.93;;;10.70;95.10;;;10.96;82.02;97208.34;5128596;27;20477;-73
2022/09/26 06:28:41;;;;;;;17.27;14.30;;;10.70;94.90;;;10.98;81.79;97202.69;5116275;27;20469;-75
2022/09/26 06:31:13;;;;;;;17.00;14.50;;;10.70;95.40;;;10.85;82.42;97190.28;5100863;27;20456;-71
2022/09/26 06:33:41;;;;;;;18.07;15.17;;;10.70;95.50;;;11.02;82.45;97204.69;5113416;27;20440;-71
2022/09/26 06:36:11;;;;;;;17.27;15.50;;;10.60;95.90;;;11.09;81.69;97199.16;5111140;27;20483;-73
2022/09/26 06:38:38;;;;;;;18.57;15.17;;;10.70;95.00;;;11.19;80.87;97187.72;5120685;27;21085;-72
2022/09/26 06:41:06;;;;;;;17.90;14.87;;;10.80;94.90;;;11.16;81.13;97196.31;5108865;28;20511;-72
2022/09/26 06:43:35;;;;;;;16.20;14.43;;;10.80;94.20;;;11.21;81.20;97201.81;5109542;28;20801;-73
2022/09/26 06:46:02;;;;;;;18.10;15.23;;;10.80;94.90;;;11.26;80.67;97191.09;5108623;28;20532;-73
2022/09/26 06:48:29;;;;;;;17.53;15.43;;;10.90;94.00;;;11.41;79.94;97181.66;5109256;28;20470;-74
2022/09/26 06:50:59;;;;;;;14.77;12.90;;;11.00;93.70;;;11.25;80.59;97194.88;5109482;28;20452;-71
2022/09/26 06:53:26;;;;;;;16.57;14.70;;;11.10;93.00;;;11.31;80.00;97180.41;5125133;27;20454;-75
2022/09/26 06:55:54;;;;;;;15.67;13.10;;;11.10;93.30;;;11.47;79.98;97178.78;5117423;27;20573;-74
2022/09/26 06:58:21;;;;;;;18.10;14.30;;;11.20;93.40;;;11.31;79.63;97182.28;5118915;27;21233;-77
2022/09/26 07:00:50;;;;;;;15.67;13.87;;;11.20;92.30;;;11.31;79.75;97176.88;5123654;27;20494;-70
2022/09/26 07:03:21;;;;;;;18.40;16.47;;;11.20;92.20;;;11.42;79.18;97175.16;5122943;27;20463;-76
2022/09/26 07:05:48;;;;;;;15.33;13.50;;;11.20;92.00;;;11.31;78.94;97183.09;5146256;27;20513;-78
2022/09/26 07:08:16;;;;;;;16.20;14.50;;;11.30;91.90;;;11.52;78.63;97180.78;5114527;27;20449;-73
2022/09/26 07:10:43;;;;;;;22.03;15.43;;;11.30;91.50;;;11.53;78.55;97187.84;5115978;27;20547;-71
2022/09/26 07:13:10;;;;;;;17.17;14.40;;;11.30;91.30;;;11.64;78.67;97182.63;5117276;27;20859;-71
2022/09/26 07:15:38;;;;;;;17.63;15.73;;;11.40;91.50;;;11.64;78.14;97182.63;5107925;28;20491;-71
2022/09/26 07:18:08;;;;;;;19.70;14.80;;;11.40;91.30;;;11.77;77.27;97179.63;5126757;27;20869;-72
2022/09/26 07:20:39;;;;;;;18.37;16.37;;;11.50;90.70;;;11.55;77.92;97185.69;5110013;27;20872;-74
2022/09/26 07:23:08;;;;;;;19.00;16.00;;;11.50;90.80;;;11.79;77.05;97184.75;5129473;27;20973;-76
2022/09/26 07:25:38;;;;;;;17.60;15.80;;;11.60;90.50;;;11.70;76.25;97182.47;5111391;27;20547;-74
2022/09/26 07:28:06;;;;;;;20.03;16.10;;;11.60;89.40;;;11.76;76.13;97178.78;5109369;28;20457;-73
2022/09/26 07:30:33;;;;;;;17.67;15.97;;;11.60;90.00;;;12.08;75.74;97173.91;5108877;28;20565;-76
2022/09/26 07:33:02;;;;;;;17.03;15.30;;;11.70;90.10;;;11.91;75.39;97190.94;5109829;28;20484;-73
2022/09/26 07:35:32;;;;;;;16.63;14.73;;;11.80;88.60;;;11.93;75.24;97180.69;5108109;28;20993;-75
2022/09/26 07:37:59;;;;;;;17.60;14.10;;;11.80;88.70;;;11.91;73.81;97182.81;5125899;27;20943;-72
2022/09/26 07:40:28;;;;;;;16.03;14.00;;;11.80;87.10;;;11.93;73.76;97183.38;5124225;27;20535;-71
2022/09/26 07:43:00;;;;;;;16.50;14.97;;;11.80;86.80;;;11.81;74.78;97183.47;5112950;27;20463;-76
2022/09/26 07:51:00;;;;;;;16.40;14.47;;;11.80;87.50;;;12.14;73.76;97165.63;5149899;27;20435;-72
2022/09/26 07:53:28;;;;;;;18.17;15.43;;;11.90;86.90;;;12.44;72.89;97171.78;5120699;27;20451;-72
2022/09/26 07:56:09;;;;;;;16.97;15.37;;;12.10;87.00;;;12.43;71.71;97168.25;5127560;27;20868;-72
2022/09/26 07:58:38;;;;;;;15.77;14.23;;;12.10;85.90;;;12.36;72.44;97172.19;5117237;27;20455;-71
2022/09/26 08:01:10;;;;;;;19.77;15.50;;;12.10;85.70;;;12.46;71.35;97167.75;5089615;28;20536;-72
2022/09/26 08:03:38;;;;;;;17.47;14.77;;;12.20;85.40;;;12.56;71.76;97171.69;5106386;27;20463;-72
2022/09/26 08:06:08;;;;;;;16.47;14.03;;;12.20;85.50;;;12.57;71.39;97170.59;5111177;27;20470;-72
2022/09/26 08:08:36;;;;;;;15.43;14.03;;;12.30;85.30;;;12.66;70.99;97166.41;5117085;27;20464;-73
2022/09/26 08:11:04;;;;;;;16.83;13.60;;;12.40;85.10;;;12.80;69.98;97166.84;5112622;27;20460;-71
2022/09/26 08:13:33;;;;;;;15.63;14.10;;;12.50;84.60;;;12.96;69.98;97164.34;5130983;27;20454;-73
2022/09/26 08:16:04;;;;;;;17.07;15.47;;;12.60;84.60;;;12.84;69.84;97164.47;5132545;27;21016;-74
2022/09/26 08:18:33;;;;;;;17.53;12.60;;;12.50;84.10;;;12.68;69.74;97155.31;5111336;27;20461;-72
2022/09/26 08:21:04;;;;;;;14.23;12.73;;;12.50;83.90;;;12.91;69.11;97161.56;5107698;28;20520;-77
2022/09/26 08:23:33;;;;;;;14.20;12.70;;;12.50;83.60;;;13.01;67.37;97158.97;5114694;27;20461;-75
2022/09/26 08:26:03;;;;;;;12.03;10.93;;;12.60;82.70;;;13.03;67.85;97157.66;5119686;27;20457;-72
2022/09/26 08:28:30;;;;;;;14.17;12.87;;;12.70;82.60;;;12.96;67.60;97157.00;5113214;27;20491;-72
2022/09/26 08:30:59;;;;;;;12.57;11.37;;;12.70;82.30;;;13.14;66.82;97152.38;5105840;27;20453;-72
2022/09/26 08:33:26;;;;;;;11.37;9.90;;;12.80;82.00;;;13.35;66.20;97141.75;5090503;28;20929;-72
2022/09/26 08:35:53;;;;;;;10.80;9.07;;;12.90;82.00;;;13.24;65.46;97148.94;5118220;27;20477;-72
2022/09/26 08:38:21;;;;;;;10.83;9.73;;;13.00;80.80;;;13.47;64.30;97150.59;5121550;27;20521;-72
2022/09/26 08:40:59;;;;;;;9.80;8.40;;;13.10;80.20;;;13.25;64.51;97150.59;5097106;28;20449;-74
2022/09/26 08:43:43;;;;;;;9.10;8.20;;;13.20;79.50;;;13.39;64.08;97151.00;5108145;28;20461;-71
2022/09/26 08:46:41;;;;;;;8.70;7.90;;;13.20;79.60;;;13.49;63.47;97145.72;5088261;28;20472;-71
2022/09/26 08:49:40;;;;;;;10.30;9.20;;;13.20;79.10;;;13.66;63.55;97144.78;5111460;27;20961;-72
2022/09/26 08:52:21;;;;;;;9.00;8.20;;;13.40;79.30;;;13.71;62.79;97137.53;5107221;28;20457;-71
2022/09/26 08:54:50;;;;;;;9.43;7.90;;;13.50;78.30;;;13.94;62.96;97119.25;5107334;28;20893;-75
2022/09/26 08:57:33;;;;;;;9.20;7.67;;;13.60;79.00;;;14.06;61.95;97135.38;5088520;28;20496;-76
2022/09/26 09:00:17;;;;;;;11.47;7.90;;;13.70;78.40;;;14.18;61.47;97129.75;5128721;28;20445;-70
2022/09/26 09:02:57;;;;;;;7.00;5.67;;;13.80;78.10;;;14.24;59.66;97123.25;5098890;28;20708;-75
2022/09/26 09:05:30;;;;;;;8.23;5.33;;;14.00;76.30;;;14.19;59.45;97120.53;5095865;28;20454;-76
2022/09/26 09:08:00;;;;;;;8.37;5.13;;;14.10;75.70;;;14.40;58.48;97126.91;5117040;28;20461;-72
2022/09/26 09:10:44;;;;;;;12.13;4.40;;;14.10;74.80;;;14.26;57.62;97131.16;5111280;28;21089;-73
2022/09/26 09:13:40;;;;;;;5.80;5.00;;;14.10;74.00;;;14.24;58.56;97131.41;5108399;28;20548;-73
2022/09/26 09:16:24;;;;;;;6.40;4.67;;;14.20;74.50;;;14.51;58.17;97125.06;5107442;28;20508;-73
2022/09/26 09:19:02;;;;;;;5.80;4.60;;;14.20;74.40;;;14.51;57.89;97135.13;5108327;28;20456;-74
2022/09/26 09:21:41;;;;;;;5.37;2.67;;;14.30;73.90;;;14.83;55.31;97117.94;5126183;28;20457;-77
2022/09/26 09:24:24;;;;;;;4.07;3.30;;;14.40;72.00;;;14.86;54.80;97117.41;5104086;28;20454;-72
2022/09/26 09:27:04;;;;;;;4.93;3.03;;;14.60;71.30;;;15.15;54.07;97120.50;5105800;28;20932;-70
2022/09/26 09:29:55;;;;;;;5.50;3.10;;;14.70;70.50;;;15.62;52.91;97106.19;5108014;28;20496;-76
2022/09/26 09:32:31;;;;;;;6.00;3.37;;;15.10;69.90;;;15.60;52.95;97105.63;5120231;28;21137;-71
2022/09/26 09:34:59;;;;;;;4.07;3.37;;;15.30;69.50;;;15.24;54.48;97099.03;5113026;28;20450;-72
2022/09/26 09:37:36;;;;;;;4.23;3.83;;;15.10;69.90;;;14.94;56.57;97102.47;5105228;28;21055;-80
2022/09/26 09:40:12;;;;;;;4.67;3.97;;;14.90;70.90;;;14.91;55.60;97101.09;5116203;28;20453;-76
2022/09/26 09:42:44;;;;;;;5.70;4.07;;;14.80;70.70;;;15.18;55.34;97097.38;5089586;28;20458;-72
2022/09/26 09:45:20;;;;;;;5.80;4.60;;;14.80;71.10;;;15.49;54.05;97092.00;5106645;28;20490;-74
2022/09/26 09:47:47;;;;;;;6.90;4.10;;;15.00;70.40;;;15.46;53.83;97081.66;5090693;28;20457;-75
2022/09/26 09:50:24;;;;;;;4.10;3.70;;;15.10;70.00;;;15.60;53.64;97092.03;5128410;28;20507;-75
2022/09/26 09:53:05;;;;;;;4.17;2.67;;;15.30;69.80;;;15.75;52.51;97102.09;5128777;28;20447;-73
2022/09/26 09:55:45;;;;;;;5.53;3.77;;;15.40;68.80;;;15.33;52.89;97090.34;5124908;28;20576;-76
2022/09/26 09:58:30;;;;;;;4.13;3.70;;;15.40;67.80;;;15.50;53.56;97092.81;5089697;28;20512;-72
2022/09/26 10:01:11;;;;;;;6.17;3.70;;;15.30;68.50;;;15.64;54.27;97084.94;5108061;28;20540;-72
2022/09/26 10:03:45;;;;;;;5.47;4.00;;;15.40;69.60;;;15.52;54.51;97079.75;5091320;28;20446;-74
2022/09/26 10:06:12;;;;;;;6.30;3.50;;;15.40;69.20;;;15.90;53.38;97065.91;5091491;28;20492;-73
2022/09/26 10:08:41;;;;;;;6.50;3.80;;;15.50;69.30;;;16.03;54.02;97075.44;5115219;27;20488;-74
2022/09/26 10:11:22;;;;;;;3.90;3.00;;;15.70;69.70;;;16.51;52.84;97066.91;5092207;28;20462;-73
2022/09/26 10:13:54;;;;;;;6.40;4.40;;;16.00;69.30;;;16.75;50.51;97072.53;5093311;28;20451;-72
2022/09/26 10:16:23;;;;;;;4.90;3.57;;;16.30;67.00;;;16.78;50.44;97057.53;5093029;27;20477;-76
2022/09/26 10:19:02;;;;;;;7.40;3.07;;;16.60;66.60;;;16.74;50.28;97070.06;5114069;27;20538;-74
2022/09/26 10:21:33;;;;;;;5.90;3.93;;;16.60;65.90;;;16.95;50.25;97058.00;5131126;27;20490;-73
2022/09/26 10:24:02;;;;;;;5.17;3.47;;;16.60;66.10;;;17.12;49.38;97052.19;5100387;28;20942;-71
2022/09/26 10:26:34;;;;;;;3.67;2.80;;;16.80;65.50;;;16.27;51.31;97056.59;5106005;27;20979;-72
2022/09/26 10:29:07;;;;;;;5.13;3.90;;;16.50;65.50;;;16.12;51.72;97055.53;5115641;27;20483;-72
2022/09/26 10:31:39;;;;;;;3.87;3.50;;;16.10;66.50;;;15.93;51.32;97047.13;5110788;28;20454;-73
2022/09/26 10:34:18;;;;;;;9.03;3.10;;;15.90;65.10;;;16.45;50.89;97051.63;5099866;27;20449;-73
2022/09/26 10:36:45;;;;;;;3.83;3.20;;;16.00;66.10;;;16.59;50.22;97046.41;5110086;27;21058;-72
2022/09/26 10:42:14;;;;;;;2.80;2.60;;;16.20;64.40;;;16.34;49.43;97046.22;5119008;27;20993;-72
2022/09/26 10:44:42;;;;;;;4.40;3.20;;;16.00;64.00;;;16.26;49.86;97044.06;5126202;27;21030;-72